createdAt,value
2017-06-21T00:00:37.721Z,18.20
2017-06-21T00:03:06.040Z,16.50
2017-06-21T00:05:34.345Z,17.54
2017-06-21T00:08:02.641Z,18.00
2017-06-21T00:10:30.968Z,17.10
2017-06-21T00:12:59.264Z,17.28
2017-06-21T00:15:27.588Z,17.48
2017-06-21T00:17:55.876Z,17.56
2017-06-21T00:20:24.201Z,18.04
2017-06-21T00:22:52.492Z,17.70
2017-06-21T00:25:20.809Z,16.76
2017-06-21T00:27:49.104Z,17.46
2017-06-21T00:30:17.400Z,17.40
2017-06-21T00:32:45.724Z,17.26
2017-06-21T00:35:14.037Z,17.04
2017-06-21T00:37:42.385Z,16.82
2017-06-21T00:40:10.696Z,17.54
2017-06-21T00:42:39.013Z,17.06
2017-06-21T00:45:07.312Z,17.22
2017-06-21T00:47:35.633Z,18.22
2017-06-21T00:50:03.929Z,18.58
2017-06-21T00:52:32.225Z,18.52
2017-06-21T00:55:00.549Z,19.62
2017-06-21T00:57:28.849Z,18.68
2017-06-21T00:59:57.167Z,18.50
2017-06-21T01:02:25.464Z,18.92
2017-06-21T01:04:53.781Z,18.58
2017-06-21T01:07:22.077Z,18.70
2017-06-21T01:09:50.403Z,18.98
2017-06-21T01:12:18.693Z,18.92
2017-06-21T01:14:46.996Z,18.36
2017-06-21T01:17:15.337Z,18.44
2017-06-21T01:19:43.648Z,18.26
2017-06-21T01:22:11.994Z,17.58
2017-06-21T01:24:40.293Z,17.60
2017-06-21T01:27:08.613Z,17.30
2017-06-21T01:29:36.904Z,19.38
2017-06-21T01:32:05.218Z,19.34
2017-06-21T01:34:33.511Z,17.52
2017-06-21T01:37:01.809Z,17.50
2017-06-21T01:39:30.128Z,18.06
2017-06-21T01:41:58.423Z,17.36
2017-06-21T01:44:26.740Z,20.06
2017-06-21T01:46:55.037Z,17.90
2017-06-21T01:49:23.347Z,18.48
2017-06-21T01:51:51.640Z,20.54
2017-06-21T01:54:19.955Z,20.26
2017-06-21T01:56:48.249Z,20.02
2017-06-21T01:59:16.540Z,19.42
2017-06-21T02:01:44.868Z,20.24
2017-06-21T02:04:13.176Z,20.08
2017-06-21T02:06:41.496Z,18.18
2017-06-21T02:09:09.797Z,20.64
2017-06-21T02:11:38.113Z,20.88
2017-06-21T02:14:06.408Z,20.46
2017-06-21T02:16:34.771Z,19.26
2017-06-21T02:19:03.064Z,17.20
2017-06-21T02:21:31.360Z,18.46
2017-06-21T02:23:59.679Z,18.08
2017-06-21T02:26:27.976Z,19.48
2017-06-21T02:28:56.287Z,20.44
2017-06-21T02:31:24.585Z,20.72
2017-06-21T02:33:52.901Z,20.26
2017-06-21T02:36:21.196Z,18.76
2017-06-21T02:38:49.524Z,20.32
2017-06-21T02:41:17.848Z,18.82
2017-06-21T02:43:46.137Z,18.28
2017-06-21T02:46:14.453Z,18.24
2017-06-21T02:48:42.754Z,20.18
2017-06-21T02:51:11.093Z,20.04
2017-06-21T02:53:39.392Z,20.16
2017-06-21T02:56:07.705Z,18.36
2017-06-21T02:58:35.992Z,20.74
2017-06-21T03:01:04.320Z,19.10
2017-06-21T03:03:32.612Z,18.88
2017-06-21T03:06:00.909Z,19.02
2017-06-21T03:08:29.230Z,19.78
2017-06-21T03:10:57.524Z,19.24
2017-06-21T03:13:25.836Z,18.62
2017-06-21T03:15:54.133Z,20.08
2017-06-21T03:18:22.444Z,18.46
2017-06-21T03:20:50.737Z,17.68
2017-06-21T03:23:19.056Z,18.82
2017-06-21T03:25:47.348Z,20.56
2017-06-21T03:28:15.642Z,19.32
2017-06-21T03:30:43.955Z,18.52
2017-06-21T03:33:12.257Z,19.12
2017-06-21T03:35:40.580Z,19.30
2017-06-21T03:38:08.876Z,17.56
2017-06-21T03:40:37.189Z,19.32
2017-06-21T03:43:05.485Z,18.18
2017-06-21T03:45:33.801Z,17.98
2017-06-21T03:48:02.091Z,18.08
2017-06-21T03:50:30.425Z,18.40
2017-06-21T03:52:58.733Z,17.44
2017-06-21T03:55:27.024Z,19.06
2017-06-21T03:57:55.344Z,20.94
2017-06-21T04:00:23.640Z,19.30
2017-06-21T04:02:51.953Z,18.66
2017-06-21T04:05:20.245Z,18.56
2017-06-21T04:07:48.560Z,16.74
2017-06-21T04:10:16.848Z,19.24
2017-06-21T04:12:45.149Z,17.14
2017-06-21T04:15:13.461Z,17.72
2017-06-21T04:17:41.760Z,17.92
2017-06-21T04:20:10.080Z,16.92
2017-06-21T04:22:38.388Z,16.24
2017-06-21T04:25:06.716Z,16.80
2017-06-21T04:27:35.010Z,15.84
2017-06-21T04:30:03.300Z,16.24
2017-06-21T04:32:31.613Z,16.94
2017-06-21T04:34:59.913Z,16.02
2017-06-21T04:37:28.226Z,15.74
2017-06-21T04:39:56.559Z,16.62
2017-06-21T04:42:24.901Z,15.20
2017-06-21T04:44:53.196Z,16.36
2017-06-21T04:47:21.492Z,15.26
2017-06-21T04:49:49.825Z,15.68
2017-06-21T04:52:18.122Z,14.14
2017-06-21T04:54:46.437Z,15.10
2017-06-21T04:57:14.738Z,15.26
2017-06-21T04:59:43.055Z,14.56
2017-06-21T05:02:11.370Z,14.86
2017-06-21T05:04:39.716Z,14.14
2017-06-21T05:07:08.009Z,14.00
2017-06-21T05:09:36.297Z,15.18
2017-06-21T05:12:04.608Z,15.62
2017-06-21T05:14:32.900Z,15.72
2017-06-21T05:17:01.217Z,15.62
2017-06-21T05:19:29.513Z,15.18
2017-06-21T05:21:57.824Z,17.36
2017-06-21T05:24:26.685Z,17.30
2017-06-21T05:26:55.345Z,16.32
2017-06-21T05:29:23.641Z,16.14
2017-06-21T05:31:51.932Z,17.72
2017-06-21T05:34:20.240Z,17.68
2017-06-21T05:36:48.532Z,15.94
2017-06-21T05:39:16.844Z,17.56
2017-06-21T05:41:45.137Z,16.62
2017-06-21T05:44:12.685Z,17.36
2017-06-21T05:46:40.985Z,18.22
2017-06-21T05:49:09.281Z,16.84
2017-06-21T05:51:37.592Z,18.08
2017-06-21T05:54:05.880Z,17.94
2017-06-21T05:56:34.196Z,17.50
2017-06-21T05:59:02.491Z,16.92
2017-06-21T06:01:30.808Z,16.86
2017-06-21T06:03:59.100Z,15.98
2017-06-21T06:06:27.437Z,16.82
2017-06-21T06:08:55.729Z,17.24
2017-06-21T06:11:24.024Z,16.26
2017-06-21T06:13:52.341Z,17.24
2017-06-21T06:16:20.636Z,18.54
2017-06-21T06:18:48.953Z,17.36
2017-06-21T06:21:17.255Z,18.60
2017-06-21T06:23:45.569Z,16.90
2017-06-21T06:26:13.865Z,23.96
2017-06-21T06:28:42.213Z,18.72
2017-06-21T06:31:10.509Z,18.86
2017-06-21T06:33:38.801Z,17.86
2017-06-21T06:36:07.120Z,20.18
2017-06-21T06:38:35.409Z,17.74
2017-06-21T06:41:03.731Z,17.92
2017-06-21T06:43:32.020Z,18.64
2017-06-21T06:46:00.341Z,17.84
2017-06-21T06:48:28.632Z,19.08
2017-06-21T06:50:56.968Z,18.88
2017-06-21T06:53:25.257Z,17.78
2017-06-21T06:55:53.557Z,17.78
2017-06-21T06:58:21.873Z,18.68
2017-06-21T07:00:50.167Z,17.80
2017-06-21T07:03:18.484Z,17.74
2017-06-21T07:05:46.783Z,16.84
2017-06-21T07:08:15.105Z,17.02
2017-06-21T07:10:43.406Z,18.00
2017-06-21T07:13:11.743Z,18.38
2017-06-21T07:15:40.036Z,16.68
2017-06-21T07:18:08.328Z,17.98
2017-06-21T07:20:36.644Z,18.00
2017-06-21T07:23:04.937Z,17.08
2017-06-21T07:25:33.248Z,16.40
2017-06-21T07:28:01.540Z,16.76
2017-06-21T07:30:29.852Z,15.94
2017-06-21T07:32:58.144Z,17.18
2017-06-21T07:35:26.456Z,15.12
2017-06-21T07:37:54.785Z,16.24
2017-06-21T07:40:23.076Z,15.70
2017-06-21T07:42:51.388Z,15.30
2017-06-21T07:45:19.681Z,17.36
2017-06-21T07:47:47.992Z,19.74
2017-06-21T07:50:16.299Z,15.02
2017-06-21T07:52:44.648Z,14.60
2017-06-21T07:55:12.955Z,14.60
2017-06-21T07:57:41.290Z,13.72
2017-06-21T08:00:09.584Z,13.62
2017-06-21T08:02:37.876Z,14.40
2017-06-21T08:05:06.193Z,13.50
2017-06-21T08:07:34.484Z,13.02
2017-06-21T08:10:02.802Z,13.26
2017-06-21T08:12:31.098Z,12.80
2017-06-21T08:14:59.417Z,13.86
2017-06-21T08:17:27.709Z,12.80
2017-06-21T08:19:56.028Z,13.38
2017-06-21T08:22:24.316Z,12.74
2017-06-21T08:24:52.612Z,11.84
2017-06-21T08:27:20.930Z,13.24
2017-06-21T08:29:49.221Z,13.32
2017-06-21T08:32:17.541Z,11.96
2017-06-21T08:34:45.836Z,12.48
2017-06-21T08:37:14.160Z,11.92
2017-06-21T08:39:42.471Z,11.66
2017-06-21T08:42:10.807Z,11.38
2017-06-21T08:44:39.109Z,11.30
2017-06-21T08:47:07.397Z,10.92
2017-06-21T08:49:35.708Z,11.32
2017-06-21T08:52:04.002Z,11.00
2017-06-21T08:54:32.312Z,11.30
2017-06-21T08:57:00.617Z,10.32
2017-06-21T08:59:29.047Z,11.18
2017-06-21T09:01:57.333Z,9.58
2017-06-21T09:04:24.885Z,10.74
2017-06-21T09:06:53.188Z,10.68
2017-06-21T09:09:21.480Z,10.60
2017-06-21T09:11:49.794Z,10.22
2017-06-21T09:14:18.085Z,10.24
2017-06-21T09:16:46.396Z,9.88
2017-06-21T09:19:14.685Z,9.20
2017-06-21T09:21:42.996Z,8.68
2017-06-21T09:24:11.297Z,7.90
2017-06-21T09:26:39.628Z,8.42
2017-06-21T09:29:07.917Z,9.32
2017-06-21T09:31:36.204Z,8.84
2017-06-21T09:34:04.513Z,10.26
2017-06-21T09:36:32.808Z,8.96
2017-06-21T09:39:01.116Z,8.16
2017-06-21T09:41:29.405Z,9.16
2017-06-21T09:43:57.719Z,10.94
2017-06-21T09:46:26.017Z,11.42
2017-06-21T09:48:54.341Z,10.48
2017-06-21T09:51:22.634Z,11.04
2017-06-21T09:53:50.924Z,11.22
2017-06-21T09:56:19.232Z,10.96
2017-06-21T09:58:47.548Z,9.92
2017-06-21T10:01:15.868Z,10.82
2017-06-21T10:03:44.291Z,11.62
2017-06-21T10:06:12.636Z,11.02
2017-06-21T10:08:40.964Z,10.16
2017-06-21T10:11:09.309Z,10.84
2017-06-21T10:13:37.605Z,10.88
2017-06-21T10:16:05.896Z,11.32
2017-06-21T10:18:34.209Z,12.18
2017-06-21T10:21:02.499Z,10.26
2017-06-21T10:23:30.832Z,10.16
2017-06-21T10:25:59.129Z,10.74
2017-06-21T10:28:27.443Z,12.62
2017-06-21T10:30:55.735Z,11.78
2017-06-21T10:33:24.064Z,12.64
2017-06-21T10:35:52.359Z,12.28
2017-06-21T10:38:20.657Z,12.22
2017-06-21T10:40:48.970Z,12.08
2017-06-21T10:43:17.272Z,12.18
2017-06-21T10:45:45.604Z,12.00
2017-06-21T10:48:13.913Z,11.16
2017-06-21T10:50:42.244Z,11.82
2017-06-21T10:53:10.547Z,12.00
2017-06-21T10:55:38.888Z,11.92
2017-06-21T10:58:07.187Z,11.42
2017-06-21T11:00:35.484Z,11.28
2017-06-21T11:03:03.796Z,10.90
2017-06-21T11:05:32.089Z,11.56
2017-06-21T11:08:00.412Z,11.76
2017-06-21T11:10:28.719Z,11.30
2017-06-21T11:12:57.042Z,12.34
2017-06-21T11:15:25.336Z,11.32
2017-06-21T11:17:53.660Z,10.64
2017-06-21T11:20:21.956Z,11.78
2017-06-21T11:22:50.249Z,11.96
2017-06-21T11:25:18.560Z,11.82
2017-06-21T11:27:46.869Z,12.78
2017-06-21T11:30:15.190Z,11.00
2017-06-21T11:32:43.476Z,12.10
2017-06-21T11:35:11.813Z,11.90
2017-06-21T11:37:40.133Z,11.08
2017-06-21T11:40:08.472Z,12.56
2017-06-21T11:42:36.764Z,12.10
2017-06-21T11:45:05.057Z,11.76
2017-06-21T11:47:33.372Z,11.52
2017-06-21T11:50:01.665Z,11.10
2017-06-21T11:52:29.982Z,11.64
2017-06-21T11:54:58.276Z,10.52
2017-06-21T11:57:26.593Z,12.30
2017-06-21T11:59:54.892Z,11.38
2017-06-21T12:02:23.213Z,10.68
2017-06-21T12:04:51.513Z,11.10
2017-06-21T12:07:19.040Z,10.68
2017-06-21T12:09:47.364Z,11.08
2017-06-21T12:12:15.678Z,11.42
2017-06-21T12:14:44.042Z,11.42
2017-06-21T12:17:12.372Z,12.56
2017-06-21T12:19:40.700Z,12.04
2017-06-21T12:22:09.001Z,10.94
2017-06-21T12:24:37.328Z,10.86
2017-06-21T12:27:06.268Z,12.02
2017-06-21T12:29:34.559Z,11.12
2017-06-21T12:32:02.873Z,10.80
2017-06-21T12:34:31.171Z,11.12
2017-06-21T12:36:59.501Z,11.00
2017-06-21T12:39:27.800Z,12.02
2017-06-21T12:41:56.107Z,10.58
2017-06-21T12:44:24.404Z,12.12
2017-06-21T12:46:52.944Z,14.02
2017-06-21T12:49:21.272Z,11.66
2017-06-21T12:51:49.697Z,11.58
2017-06-21T12:54:18.024Z,11.40
2017-06-21T12:56:46.325Z,11.52
2017-06-21T12:59:14.653Z,11.32
2017-06-21T13:01:44.366Z,11.02
2017-06-21T13:04:12.701Z,11.06
2017-06-21T13:06:41.037Z,11.42
2017-06-21T13:09:09.356Z,11.38
2017-06-21T13:11:37.656Z,11.68
2017-06-21T13:14:05.957Z,10.90
2017-06-21T13:16:34.274Z,10.86
2017-06-21T13:19:02.576Z,11.02
2017-06-21T13:21:30.904Z,11.94
2017-06-21T13:23:59.213Z,11.22
2017-06-21T13:26:27.533Z,11.70
2017-06-21T13:28:56.008Z,11.42
2017-06-21T13:31:24.512Z,11.54
2017-06-21T13:33:52.830Z,11.22
2017-06-21T13:36:21.121Z,10.40
2017-06-21T13:38:49.436Z,10.68
2017-06-21T13:41:17.736Z,11.36
2017-06-21T13:43:46.053Z,10.74
2017-06-21T13:46:14.369Z,11.14
2017-06-21T13:48:42.683Z,11.42
2017-06-21T13:51:11.054Z,10.50
2017-06-21T13:53:39.368Z,11.14
2017-06-21T13:56:07.660Z,11.48
2017-06-21T13:58:35.954Z,10.42
2017-06-21T14:01:04.269Z,10.32
2017-06-21T14:03:32.564Z,11.62
2017-06-21T14:06:00.880Z,9.72
2017-06-21T14:08:29.178Z,10.52
2017-06-21T14:10:57.488Z,10.64
2017-06-21T14:13:25.011Z,10.10
2017-06-21T14:15:53.348Z,10.10
2017-06-21T14:18:21.636Z,10.50
2017-06-21T14:20:49.920Z,9.64
2017-06-21T14:23:18.233Z,10.14
2017-06-21T14:25:46.533Z,9.76
2017-06-21T14:28:14.847Z,9.62
2017-06-21T14:30:43.170Z,10.24
2017-06-21T14:33:11.516Z,10.46
2017-06-21T14:35:39.812Z,10.18
2017-06-21T14:38:08.131Z,9.88
2017-06-21T14:40:36.422Z,9.60
2017-06-21T14:43:04.708Z,9.94
2017-06-21T14:45:33.021Z,10.60
2017-06-21T14:48:02.340Z,9.66
2017-06-21T14:50:30.668Z,10.18
2017-06-21T14:52:58.971Z,9.18
2017-06-21T14:55:27.286Z,9.78
2017-06-21T14:57:55.587Z,10.72
2017-06-21T15:00:23.897Z,10.38
2017-06-21T15:02:52.194Z,9.92
2017-06-21T15:05:20.516Z,10.42
2017-06-21T15:07:48.824Z,9.72
2017-06-21T15:10:17.116Z,9.86
2017-06-21T15:12:45.438Z,9.20
2017-06-21T15:15:13.765Z,9.90
2017-06-21T15:17:42.877Z,9.68
2017-06-21T15:20:11.178Z,9.08
2017-06-21T15:22:39.496Z,8.88
2017-06-21T15:25:07.793Z,9.32
2017-06-21T15:27:36.080Z,8.38
2017-06-21T15:30:04.389Z,9.16
2017-06-21T15:32:32.693Z,9.20
2017-06-21T15:35:01.010Z,9.76
2017-06-21T15:37:29.296Z,9.68
2017-06-21T15:39:57.608Z,10.56
2017-06-21T15:42:25.896Z,10.12
2017-06-21T15:44:54.236Z,9.76
2017-06-21T15:47:22.521Z,9.92
2017-06-21T15:49:50.817Z,10.40
2017-06-21T15:52:18.359Z,10.38
2017-06-21T15:54:46.652Z,9.22
2017-06-21T15:57:14.964Z,9.28
2017-06-21T15:59:43.254Z,8.90
2017-06-21T16:02:11.597Z,9.02
2017-06-21T16:04:39.898Z,9.34
2017-06-21T16:07:08.204Z,9.60
2017-06-21T16:09:36.496Z,8.82
2017-06-21T16:12:04.783Z,9.50
2017-06-21T16:14:33.096Z,10.36
2017-06-21T16:17:01.436Z,9.30
2017-06-21T16:19:29.783Z,9.70
2017-06-21T16:21:58.077Z,9.44
2017-06-21T16:24:26.932Z,9.46
2017-06-21T16:26:55.236Z,9.28
2017-06-21T16:29:23.577Z,9.36
2017-06-21T16:31:51.886Z,9.08
2017-06-21T16:34:20.188Z,9.44
2017-06-21T16:36:48.570Z,9.46
2017-06-21T16:39:16.868Z,9.58
2017-06-21T16:41:45.181Z,8.46
2017-06-21T16:44:12.725Z,8.96
2017-06-21T16:46:41.045Z,10.80
2017-06-21T16:49:09.336Z,8.56
2017-06-21T16:51:37.665Z,8.72
2017-06-21T16:54:05.184Z,8.72
2017-06-21T16:56:33.469Z,9.18
2017-06-21T16:59:01.785Z,8.50
2017-06-21T17:01:30.089Z,8.88
2017-06-21T17:03:58.401Z,9.28
2017-06-21T17:06:26.693Z,9.06
2017-06-21T17:08:55.000Z,8.38
2017-06-21T17:11:23.285Z,8.68
2017-06-21T17:13:51.600Z,8.30
2017-06-21T17:16:19.885Z,8.42
2017-06-21T17:18:47.421Z,8.50
2017-06-21T17:21:15.736Z,9.12
2017-06-21T17:23:44.050Z,8.58
2017-06-21T17:26:12.369Z,9.10
2017-06-21T17:28:40.682Z,8.66
2017-06-21T17:31:08.997Z,8.32
2017-06-21T17:33:36.516Z,9.12
2017-06-21T17:36:04.845Z,8.68
2017-06-21T17:38:33.141Z,9.46
2017-06-21T17:41:01.437Z,8.48
2017-06-21T17:43:29.758Z,7.48
2017-06-21T17:45:58.044Z,8.62
2017-06-21T17:48:26.353Z,8.18
2017-06-21T17:50:54.645Z,8.86
2017-06-21T17:53:22.957Z,10.50
2017-06-21T17:55:51.246Z,8.50
2017-06-21T17:58:19.563Z,8.32
2017-06-21T18:00:47.854Z,9.56
2017-06-21T18:03:16.152Z,11.00
2017-06-21T18:05:44.489Z,7.88
2017-06-21T18:08:12.021Z,9.72
2017-06-21T18:10:39.612Z,8.54
2017-06-21T18:13:07.901Z,8.74
2017-06-21T18:15:36.209Z,9.44
2017-06-21T18:18:04.510Z,8.42
2017-06-21T18:20:32.844Z,8.62
2017-06-21T18:23:01.146Z,9.24
2017-06-21T18:25:29.437Z,8.48
2017-06-21T18:27:57.744Z,8.76
2017-06-21T18:30:25.288Z,9.18
2017-06-21T18:32:53.588Z,8.42
2017-06-21T18:35:21.873Z,8.66
2017-06-21T18:37:50.185Z,8.92
2017-06-21T18:40:18.498Z,8.68
2017-06-21T18:42:46.843Z,8.28
2017-06-21T18:45:15.146Z,8.86
2017-06-21T18:47:43.468Z,8.76
2017-06-21T18:50:11.912Z,9.06
2017-06-21T18:52:40.199Z,8.52
2017-06-21T18:55:08.529Z,9.22
2017-06-21T18:57:36.061Z,8.82
2017-06-21T19:00:04.373Z,8.72
2017-06-21T19:02:32.657Z,8.26
2017-06-21T19:05:00.977Z,8.36
2017-06-21T19:07:29.283Z,8.66
2017-06-21T19:09:57.581Z,9.12
2017-06-21T19:12:25.897Z,10.26
2017-06-21T19:14:54.213Z,8.80
2017-06-21T19:17:21.782Z,9.34
2017-06-21T19:19:50.089Z,11.94
2017-06-21T19:22:18.397Z,9.22
2017-06-21T19:24:46.705Z,9.08
2017-06-21T19:27:15.042Z,10.24
2017-06-21T19:29:43.370Z,9.40
2017-06-21T19:32:11.683Z,9.24
2017-06-21T19:34:40.009Z,9.48
2017-06-21T19:37:08.312Z,9.90
2017-06-21T19:39:36.688Z,9.50
2017-06-21T19:42:04.996Z,9.78
2017-06-21T19:44:33.308Z,9.48
2017-06-21T19:47:01.615Z,10.12
2017-06-21T19:49:29.179Z,9.36
2017-06-21T19:51:57.510Z,9.78
2017-06-21T19:54:25.803Z,9.52
2017-06-21T19:56:54.120Z,10.24
2017-06-21T19:59:22.421Z,9.92
2017-06-21T20:01:50.724Z,11.06
2017-06-21T20:04:19.012Z,10.54
2017-06-21T20:06:47.328Z,10.36
2017-06-21T20:09:15.630Z,10.46
2017-06-21T20:11:43.958Z,10.32
2017-06-21T20:14:12.268Z,9.82
2017-06-21T20:16:40.566Z,10.12
2017-06-21T20:19:08.940Z,10.98
2017-06-21T20:21:37.229Z,10.64
2017-06-21T20:24:05.548Z,10.88
2017-06-21T20:26:33.837Z,12.78
2017-06-21T20:29:02.163Z,11.14
2017-06-21T20:31:30.476Z,10.62
2017-06-21T20:33:58.792Z,10.96
2017-06-21T20:36:27.085Z,11.14
2017-06-21T20:38:55.409Z,11.08
2017-06-21T20:41:23.716Z,11.06
2017-06-21T20:43:52.009Z,10.98
2017-06-21T20:46:20.316Z,10.86
2017-06-21T20:48:48.609Z,10.38
2017-06-21T20:51:16.929Z,11.12
2017-06-21T20:53:45.233Z,13.76
2017-06-21T20:56:13.587Z,12.02
2017-06-21T20:58:41.910Z,12.74
2017-06-21T21:01:10.209Z,11.52
2017-06-21T21:03:38.524Z,12.70
2017-06-21T21:06:06.825Z,11.36
2017-06-21T21:08:35.140Z,12.66
2017-06-21T21:11:03.424Z,12.36
2017-06-21T21:13:31.740Z,12.28
2017-06-21T21:16:00.028Z,11.64
2017-06-21T21:18:28.349Z,10.54
2017-06-21T21:20:56.640Z,12.14
2017-06-21T21:23:24.932Z,11.54
2017-06-21T21:25:53.244Z,12.18
2017-06-21T21:28:21.535Z,12.00
2017-06-21T21:30:49.849Z,11.64
2017-06-21T21:33:18.144Z,11.64
2017-06-21T21:35:46.462Z,11.54
2017-06-21T21:38:14.792Z,12.66
2017-06-21T21:40:43.096Z,11.34
2017-06-21T21:43:11.474Z,11.56
2017-06-21T21:45:39.773Z,12.36
2017-06-21T21:48:08.085Z,12.20
2017-06-21T21:50:36.380Z,11.86
2017-06-21T21:53:03.945Z,16.68
2017-06-21T21:55:32.241Z,12.04
2017-06-21T21:58:00.553Z,12.78
2017-06-21T22:00:28.870Z,11.70
2017-06-21T22:02:57.192Z,12.14
2017-06-21T22:05:25.503Z,13.24
2017-06-21T22:07:53.796Z,12.66
2017-06-21T22:10:22.110Z,12.64
2017-06-21T22:12:50.422Z,12.88
2017-06-21T22:15:18.893Z,11.78
2017-06-21T22:17:47.225Z,12.24
2017-06-21T22:20:15.182Z,12.46
2017-06-21T22:22:42.775Z,13.46
2017-06-21T22:25:11.093Z,12.84
2017-06-21T22:27:39.416Z,13.42
2017-06-21T22:30:07.713Z,12.00
2017-06-21T22:32:36.040Z,13.08
2017-06-21T22:35:04.332Z,12.70
2017-06-21T22:37:32.649Z,12.72
2017-06-21T22:40:00.956Z,13.88
2017-06-21T22:42:29.254Z,12.90
2017-06-21T22:44:57.572Z,13.88
2017-06-21T22:47:25.865Z,14.22
2017-06-21T22:49:55.120Z,12.50
2017-06-21T22:52:23.408Z,12.68
2017-06-21T22:54:51.720Z,13.36
2017-06-21T22:57:20.008Z,13.32
2017-06-21T22:59:48.324Z,13.72
2017-06-21T23:02:16.636Z,12.72
2017-06-21T23:04:44.961Z,16.70
2017-06-21T23:07:13.317Z,13.90
2017-06-21T23:09:41.625Z,13.02
2017-06-21T23:12:09.939Z,13.56
2017-06-21T23:14:38.232Z,12.88
2017-06-21T23:17:06.549Z,13.64
2017-06-21T23:19:34.847Z,13.02
2017-06-21T23:22:03.176Z,12.22
2017-06-21T23:24:31.473Z,12.84
2017-06-21T23:26:59.788Z,13.38
2017-06-21T23:29:28.104Z,13.44
2017-06-21T23:31:56.398Z,13.04
2017-06-21T23:34:24.713Z,12.74
2017-06-21T23:36:53.007Z,13.38
2017-06-21T23:39:21.324Z,13.90
2017-06-21T23:41:49.624Z,12.62
2017-06-21T23:44:17.941Z,14.02
2017-06-21T23:46:46.244Z,13.00
2017-06-21T23:49:14.567Z,13.08
2017-06-21T23:51:42.153Z,12.86
2017-06-21T23:54:10.440Z,14.64
2017-06-21T23:56:38.760Z,13.60
2017-06-21T23:59:07.053Z,13.78
